• Join FlightAware (Why Join?)
  • Login
  • US Flag 
09:31AM EST


 

Airport Tracker/Info


-or-


 

Live Flight TrackerFlight Track Log ✈ DAL1829 ✈ 14-Oct-2013 ✈ KDTW - KMIA

Flight Track Log - Related Links

Times and Time Zones

All times are in EDT time to prevent confusion due to time zone crossing. See the DAL1829 flight status page for this flight to view local times or setup timezone preferences in your user account.

Time Position Orientation Groundspeed Altitude Reporting Facility
EDT Latitude Longitude Course Direction KTS MPH feet Rate Location/Type
08:39AM 42.2294 -83.3367 213° Southwest 161 185 1,300  Level Cleveland Center
08:41AM 42.2742 -83.2722 47° Northeast 238 274 3,900 2,040 Climbing Cleveland Center
08:41AM 42.2761 -83.2644 71° East 223 257 4,200 2,940 Climbing Cleveland Center
08:42AM 41.8146 -83.2623 180° South  Level Estimated
08:42AM 42.2872 -83.1839 79° East 286 329 6,900  Level Cleveland Center
08:42AM 42.2842 -83.1739 112° Southeast 266 306 7,200 3,000 Climbing Cleveland Center
08:43AM 41.6820 -83.2321 202° Southwest  Level Estimated
08:43AM 42.2528 -83.0861 116° Southeast 292 336 10,000  Level Cleveland Center
08:43AM 42.2497 -83.0750 110° East 289 333 10,300 1,200 Climbing Cleveland Center
08:44AM 41.5494 -83.2021 204° Southwest  Level Estimated
08:44AM 42.1717 -83.0303 157° South 355 409 11,500  Level Cleveland Center
08:45AM 41.4367 -83.3001 213° Southwest  Level FlightAware Approximate
08:45AM 42.0783 -83.0994 209° Southwest 378 435 14,400  Level Cleveland Center
08:46AM 41.9547 -83.1719 204° Southwest 398 458 17,400 2,460 Climbing Cleveland Center
08:47AM 41.8483 -83.2317 203° Southwest 410 472 19,500 1,980 Climbing Cleveland Center
08:48AM 41.7325 -83.2711 194° South 426 490 21,500 1,740 Climbing Cleveland Center
08:49AM 41.6153 -83.3119 195° South 431 496 23,100 1,500 Climbing Cleveland Center
08:50AM 41.4942 -83.3544 195° South 447 514 24,700 1,500 Climbing Cleveland Center
08:51AM 41.3689 -83.3997 195° South 461 531 26,200 1,440 Climbing Cleveland Center
08:52AM 41.2417 -83.4422 194° South 469 540 27,700 1,320 Climbing Cleveland Center
08:53AM 41.0919 -83.4956 195° South 468 539 29,000 600 Climbing Cleveland Center
08:54AM 40.9803 -83.5342 195° South 459 528 29,000 180 Level Cleveland Center
08:55AM 40.8564 -83.5769 195° South 461 531 29,400 1,080 Climbing Cleveland Center
08:56AM 40.7567 -83.6128 195° South 462 532 30,800 1,620 Climbing Indianapolis Center
08:57AM 40.6336 -83.6542 194° South 459 528 32,100 1,080 Climbing Indianapolis Center
08:58AM 40.5097 -83.6958 194° South 460 529 33,100 1,020 Climbing Indianapolis Center
08:59AM 40.3842 -83.7389 195° South 468 539 34,200 1,020 Climbing Indianapolis Center
09:00AM 40.2572 -83.7814 194° South 472 543 35,300 1,020 Climbing Indianapolis Center
09:01AM 40.1328 -83.8247 195° South 469 540 36,400 780 Climbing Indianapolis Center
09:02AM 39.9828 -83.8747 194° South 470 541 37,000 240 Climbing Indianapolis Center
09:03AM 39.8567 -83.9161 194° South 471 542 37,000  Level Indianapolis Center
09:04AM 39.7244 -83.9347 186° South 487 560 37,000  Level Indianapolis Center
09:05AM 39.5869 -83.9331 179° South 498 573 37,000  Level Indianapolis Center
09:06AM 39.4492 -83.9319 180° South 498 573 37,000  Level Indianapolis Center
09:07AM 39.2822 -83.9311 180° South 503 579 37,000  Level Indianapolis Center
09:08AM 39.1422 -83.9292 179° South 505 581 37,000  Level Indianapolis Center
09:09AM 39.0008 -83.9269 179° South 509 586 37,000  Level Indianapolis Center
09:10AM 38.8603 -83.9261 180° South 506 582 37,000  Level Indianapolis Center
09:11AM 38.7192 -83.9242 179° South 507 583 37,000  Level Indianapolis Center
09:12AM 38.5667 -83.9219 179° South 510 587 37,000  Level Indianapolis Center
09:13AM 38.4258 -83.9217 180° South 507 583 37,000  Level Indianapolis Center
09:14AM 38.2622 -83.9197 179° South 504 580 37,000  Level Indianapolis Center
09:15AM 38.1211 -83.9189 180° South 506 582 37,000  Level Indianapolis Center
09:16AM 37.9814 -83.9158 179° South 507 583 37,000  Level Indianapolis Center
09:17AM 37.8417 -83.9139 179° South 506 582 37,000  Level Indianapolis Center
09:18AM 37.7017 -83.9142 180° South 504 580 37,000  Level Indianapolis Center
09:19AM 37.5597 -83.9117 179° South 508 585 37,000  Level Indianapolis Center
09:21AM 37.3944 -83.9100 180° South 507 583 37,000  Level Indianapolis Center
09:22AM 37.2519 -83.9083 179° South 511 588 37,000  Level Indianapolis Center
09:23AM 37.1069 -83.9069 180° South 519 597 37,000  Level Indianapolis Center
09:24AM 36.9633 -83.9058 180° South 518 596 37,000  Level Indianapolis Center
09:25AM 36.8175 -83.9042 179° South 521 600 37,000  Level Indianapolis Center
09:26AM 36.6472 -83.9036 180° South 524 603 37,000  Level Indianapolis Center
09:27AM 36.5025 -83.9025 180° South 522 601 37,000  Level Indianapolis Center
09:28AM 36.3747 -83.8989 179° South 522 601 37,000  Level Indianapolis Center
09:29AM 36.2000 -83.8972 180° South 521 600 37,000  Level Indianapolis Center
09:29AM 36.1061 -83.8975 180° South 517 595 37,000  Level Atlanta Center
09:30AM 35.9622 -83.8950 179° South 517 595 37,000  Level Atlanta Center
09:31AM 35.8183 -83.8569 168° South 517 595 37,000  Level Atlanta Center
09:32AM 35.6806 -83.7958 160° South 522 601 37,000  Level Atlanta Center
09:33AM 35.5383 -83.7275 159° South 535 616 37,000  Level Atlanta Center
09:34AM 35.3964 -83.6667 161° South 540 621 37,000  Level Atlanta Center
09:35AM 35.2542 -83.5986 159° South 551 634 37,000  Level Atlanta Center
09:36AM 35.1142 -83.5386 161° South 546 628 37,000  Level Atlanta Center
09:37AM 34.9722 -83.4761 160° South 546 628 37,000  Level Atlanta Center
09:38AM 34.8342 -83.4111 159° South 546 628 37,000  Level Atlanta Center
09:39AM 34.6897 -83.3492 161° South 546 628 37,000  Level Atlanta Center
09:40AM 34.5475 -83.2797 158° South 554 638 37,000  Level Atlanta Center
09:41AM 34.4050 -83.2206 161° South 549 632 37,000  Level Atlanta Center
09:42AM 34.2628 -83.1567 160° South 549 632 37,000  Level Atlanta Center
09:43AM 34.1331 -83.1003 160° South 549 632 37,000 240 Level Atlanta Center
09:44AM 33.9925 -83.0392 160° South 544 626 37,500 480 Climbing Atlanta Center
09:45AM 33.8503 -82.9783 160° South 544 626 38,000 240 Climbing Atlanta Center
09:46AM 33.7078 -82.9175 160° South 549 632 38,000  Level Atlanta Center
09:47AM 33.5631 -82.8572 161° South 544 626 38,000  Level Atlanta Center
09:48AM 33.4058 -82.7897 160° South 544 626 38,000  Level Atlanta Center
09:49AM 33.2842 -82.7342 159° South 536 617 38,000  Level Atlanta Center
09:50AM 33.1417 -82.6744 161° South 536 617 38,000  Level Atlanta Center
09:51AM 32.9969 -82.6122 160° South 536 617 38,000  Level Atlanta Center
09:52AM 32.8564 -82.5503 160° South 541 623 38,000  Level Atlanta Center
09:53AM 32.7178 -82.4908 160° South 541 623 38,000  Level Atlanta Center
09:55AM 32.4956 -82.4025 161° South 529 609 38,000  Level Jacksonville Center
09:56AM 32.3533 -82.3344 158° South 529 609 38,000  Level Jacksonville Center
09:57AM 32.2006 -82.2764 162° South 524 603 38,000  Level Jacksonville Center
09:58AM 32.0625 -82.2183 160° South 529 609 38,000  Level Jacksonville Center
09:59AM 31.9347 -82.1656 161° South 529 609 38,000  Level Jacksonville Center
10:00AM 31.7819 -82.1008 160° South 535 616 38,000  Level Jacksonville Center
10:01AM 31.6417 -82.0433 161° South 525 604 38,000  Level Jacksonville Center
10:02AM 31.5161 -81.9908 160° South 531 611 38,000  Level Jacksonville Center
10:03AM 31.3633 -81.9267 160° South 531 611 38,000  Level Jacksonville Center
10:04AM 31.2228 -81.8697 161° South 531 611 38,000  Level Jacksonville Center
10:05AM 31.0825 -81.8131 161° South 531 611 38,000 -60 Level Jacksonville Center
10:06AM 30.9422 -81.7567 161° South 531 611 37,900 -60 Descending Jacksonville Center
10:07AM 30.8017 -81.6978 160° South 531 611 37,900  Level Jacksonville Center
10:08AM 30.6633 -81.6417 161° South 531 611 37,900  Level Jacksonville Center
10:09AM 30.5269 -81.5856 160° South 526 605 38,000  Climbing Jacksonville Center
10:10AM 30.3825 -81.5272 161° South 531 611 38,000  Level Jacksonville Center
10:11AM 30.2586 -81.4808 162° South 531 611 38,000  Level Jacksonville Center
10:12AM 30.1183 -81.4253 161° South 526 605 38,000  Level Jacksonville Center
10:13AM 29.9756 -81.3725 162° South 526 605 38,000  Level Jacksonville Center
10:14AM 29.8372 -81.3194 162° South 532 612 38,000  Level Jacksonville Center
10:15AM 29.6944 -81.2644 161° South 532 612 38,000  Level Jacksonville Center
10:16AM 29.5519 -81.2094 161° South 532 612 38,000 -60 Level Jacksonville Center
10:19AM 29.1736 -81.0653 162° South 535 616 37,900  Descending Miami Center
10:20AM 29.0356 -81.0078 160° South 516 594 38,000  Climbing Miami Center
10:21AM 28.8975 -80.9531 161° South 510 587 37,900  Descending Miami Center
10:22AM 28.7614 -80.8958 160° South 521 600 38,000  Climbing Miami Center
10:23AM 28.6231 -80.8411 161° South 516 594 38,000  Level Miami Center
10:24AM 28.4869 -80.7892 161° South 521 600 38,000 -60 Level Miami Center
10:25AM 28.3486 -80.7322 160° South 526 605 37,900  Descending Miami Center
10:26AM 28.2144 -80.6783 161° South 521 600 38,000 -60 Climbing Miami Center
10:27AM 28.0758 -80.6264 162° South 521 600 37,800 -600 Descending Miami Center
10:28AM 27.9289 -80.5769 163° South 521 600 36,900 -1,740 Descending Miami Center
10:29AM 27.7944 -80.5303 163° South 521 600 34,300 -3,000 Descending Miami Center
10:30AM 27.6539 -80.4814 163° South 521 600 31,000 -3,180 Descending Miami Center
10:31AM 27.5153 -80.4256 160° South 533 613 28,000 -2,880 Descending Miami Center
10:32AM 27.3789 -80.3722 161° South 533 613 25,300 -2,100 Descending Miami Center
10:33AM 27.2506 -80.3214 161° South 519 597 23,900 -660 Descending Miami Center
10:34AM 27.1183 -80.2661 160° South 489 563 24,000 -120 Climbing Miami Center
10:35AM 26.9961 -80.2183 161° South 475 547 23,700 -1,440 Descending Miami Center
10:36AM 26.8742 -80.1683 160° South 470 541 21,200 -2,640 Descending Miami Center
10:37AM 26.7603 -80.1208 160° South 451 519 18,500 -2,460 Descending Miami Center
10:38AM 26.6358 -80.0825 165° South 398 458 16,100 -2,280 Descending Miami Center
10:39AM 26.5611 -80.0689 171° South 381 438 14,500 -2,340 Descending Miami Center
10:39AM 26.5444 -80.0639 165° South 393 452 14,000 -1,500 Descending Miami Center
10:40AM 26.4653 -80.0522 172° South 349 402 13,000 -1,020 Descending Miami Center
10:40AM 26.4486 -80.0472 165° South 372 428 13,000 -480 Level Miami Center
10:41AM 26.3508 -80.0308 171° South 358 412 12,500 -720 Descending Miami Center
10:42AM 26.2675 -80.0192 173° South 336 387 11,700 -900 Descending Miami Center
10:42AM 26.2572 -80.0167 168° South 345 397 11,600 -1,140 Descending Miami Center
10:42AM 26.1900 -80.0333 193° South 311 358 10,700 -1,020 Descending Miami Center
10:43AM 26.1836 -80.0356 197° South 330 380 10,600 -720 Descending Miami Center
10:44AM 26.1081 -80.0589 195° South 290 334 10,000 -600 Descending Miami Center
10:44AM 26.1019 -80.0542 145° Southeast 313 360 10,000 -660 Level Miami Center
10:45AM 26.0239 -80.0797 196° South 274 315 9,300 -720 Descending Miami Center
10:45AM 26.0283 -80.0775 24° Northeast 296 341 9,300 -1,440 Level Miami Center
10:46AM 25.9606 -80.1081 202° Southwest 270 311 8,000 -1,320 Descending Miami Center
10:46AM 25.9608 -80.1058 82° East 280 322 8,000  Level Miami Center
10:47AM 25.9525 -80.1911 264° West 262 302 8,000 -120 Level Miami Center
10:47AM 25.9547 -80.1889 42° Northeast 230 265 7,900 -1,860 Descending Miami Center
10:48AM 25.9444 -80.2739 262° West 261 300 5,900 -2,340 Descending Miami Center
10:49AM 25.9403 -80.3617 267° West 258 297 3,300 -1,680 Descending Miami Center
10:50AM 25.9014 -80.4136 230° Southwest 234 269 2,500 -720 Descending Miami Center
10:51AM 25.8447 -80.4258 191° South 207 238 1,900 -600 Descending Miami Center
10:52AM 25.8333 -80.3817 106° East 155 178 1,400 -660 Descending Miami Center
10:53AM 25.8133 -80.3394 118° Southeast 146 168 700 -720 Descending Miami Center